CheckWX is a tool to help pilots better visualize weather data.  It is not intended as a substitute for an official pre-flight weather briefing.

06:13:52 UTC

KEGE METAR
Eagle County Regional Airport
Eagle, Colorado, USA
Current

18 mins ago

KEGE 180556Z AUTO 12006KT 10SM BKN065 00/M06 A3025 RMK AO2 SLP264 T00001056 10083 20000 401221067 58001 FZRANO
Observed
Nov-18 @ 05:56 UTC
Wind
  • 120° at 6 KTS
Visibility
10 SM
Flight Rules
VFR
Cloud Levels
  • Broken at 6,500' AGL
Temperature
C / 32°F
Dewpoint
-6°C / 21°F
Humidity
64%
Altimeter
30.25" Hg
Pressure
1024.42 hPa
Previous

1 hour ago

KEGE 180456Z AUTO 10008KT 10SM FEW085 01/M06 A3026 RMK AO2 SLP273 T00111056 FZRANO
Observed
Nov-18 @ 04:56 UTC
Wind
  • 100° at 8 KTS
Visibility
10 SM
Flight Rules
VFR
Cloud Levels
  • Few at 8,500' AGL
Temperature
C / 34°F
Dewpoint
-6°C / 21°F
Humidity
60%
Altimeter
30.26" Hg
Pressure
1024.72 hPa
Previous

2 hours ago

KEGE 180356Z AUTO 11006KT 10SM CLR 01/M06 A3026 RMK AO2 SLP273 T00111056 FZRANO
Observed
Nov-18 @ 03:56 UTC
Wind
  • 110° at 6 KTS
Visibility
10 SM
Flight Rules
VFR
Cloud Levels
  • Clear skies
Temperature
C / 34°F
Dewpoint
-6°C / 21°F
Humidity
60%
Altimeter
30.26" Hg
Pressure
1024.72 hPa